sensor_id;sensor_type;location;lat;lon;timestamp;temperature;humidity
11812;DHT22;5963;50.184;9.162;2022-12-07T00:01:55;2.30;99.90
11812;DHT22;5963;50.184;9.162;2022-12-07T00:04:25;2.40;99.90
11812;DHT22;5963;50.184;9.162;2022-12-07T00:06:55;2.40;99.90
11812;DHT22;5963;50.184;9.162;2022-12-07T00:09:24;2.40;99.90
11812;DHT22;5963;50.184;9.162;2022-12-07T00:11:54;2.50;99.90
11812;DHT22;5963;50.184;9.162;2022-12-07T00:14:24;2.50;99.90
11812;DHT22;5963;50.184;9.162;2022-12-07T00:16:54;2.60;99.90
11812;DHT22;5963;50.184;9.162;2022-12-07T00:19:25;2.60;99.90
11812;DHT22;5963;50.184;9.162;2022-12-07T00:21:55;2.70;99.90
11812;DHT22;5963;50.184;9.162;2022-12-07T00:24:24;2.70;99.90
11812;DHT22;5963;50.184;9.162;2022-12-07T00:26:54;2.70;99.90
11812;DHT22;5963;50.184;9.162;2022-12-07T00:29:24;2.60;99.90
11812;DHT22;5963;50.184;9.162;2022-12-07T00:31:54;2.60;99.90
11812;DHT22;5963;50.184;9.162;2022-12-07T00:34:25;2.60;99.90
11812;DHT22;5963;50.184;9.162;2022-12-07T00:36:55;2.60;99.90
11812;DHT22;5963;50.184;9.162;2022-12-07T00:39:24;2.60;99.90
11812;DHT22;5963;50.184;9.162;2022-12-07T00:41:54;2.70;99.90
11812;DHT22;5963;50.184;9.162;2022-12-07T00:44:24;2.80;99.90
11812;DHT22;5963;50.184;9.162;2022-12-07T00:46:54;2.80;99.90
11812;DHT22;5963;50.184;9.162;2022-12-07T00:49:25;2.70;99.90
11812;DHT22;5963;50.184;9.162;2022-12-07T00:51:55;2.70;99.90
11812;DHT22;5963;50.184;9.162;2022-12-07T00:54:25;2.60;99.90
11812;DHT22;5963;50.184;9.162;2022-12-07T00:56:54;2.60;99.90
11812;DHT22;5963;50.184;9.162;2022-12-07T00:59:24;2.50;99.90
11812;DHT22;5963;50.184;9.162;2022-12-07T01:01:54;2.60;99.90
11812;DHT22;5963;50.184;9.162;2022-12-07T01:04:23;2.50;99.90
11812;DHT22;5963;50.184;9.162;2022-12-07T01:06:53;2.50;99.90
11812;DHT22;5963;50.184;9.162;2022-12-07T01:09:23;2.40;99.90
11812;DHT22;5963;50.184;9.162;2022-12-07T01:11:53;2.50;99.90
11812;DHT22;5963;50.184;9.162;2022-12-07T01:14:23;2.40;99.90
11812;DHT22;5963;50.184;9.162;2022-12-07T01:16:53;2.50;99.90
11812;DHT22;5963;50.184;9.162;2022-12-07T01:19:22;2.50;99.90
11812;DHT22;5963;50.184;9.162;2022-12-07T01:21:53;2.40;99.90
11812;DHT22;5963;50.184;9.162;2022-12-07T01:24:23;2.40;99.90
11812;DHT22;5963;50.184;9.162;2022-12-07T01:26:53;2.50;99.90
11812;DHT22;5963;50.184;9.162;2022-12-07T01:29:23;2.50;99.90
11812;DHT22;5963;50.184;9.162;2022-12-07T01:31:52;2.60;99.90
11812;DHT22;5963;50.184;9.162;2022-12-07T01:34:22;2.60;99.90
11812;DHT22;5963;50.184;9.162;2022-12-07T01:36:54;2.50;99.90
11812;DHT22;5963;50.184;9.162;2022-12-07T01:39:24;2.50;99.90
11812;DHT22;5963;50.184;9.162;2022-12-07T01:41:54;2.40;99.90
11812;DHT22;5963;50.184;9.162;2022-12-07T01:44:25;2.50;99.90
11812;DHT22;5963;50.184;9.162;2022-12-07T01:46:57;2.40;99.90
11812;DHT22;5963;50.184;9.162;2022-12-07T01:49:29;2.50;99.90
11812;DHT22;5963;50.184;9.162;2022-12-07T01:52:07;2.60;99.90
11812;DHT22;5963;50.184;9.162;2022-12-07T01:54:39;2.70;99.90
11812;DHT22;5963;50.184;9.162;2022-12-07T01:57:10;2.70;99.90
11812;DHT22;5963;50.184;9.162;2022-12-07T01:59:40;2.70;99.90
11812;DHT22;5963;50.184;9.162;2022-12-07T02:02:16;2.70;99.90
11812;DHT22;5963;50.184;9.162;2022-12-07T02:04:48;2.60;99.90
11812;DHT22;5963;50.184;9.162;2022-12-07T02:07:20;2.50;99.90
11812;DHT22;5963;50.184;9.162;2022-12-07T02:09:52;2.60;99.90
11812;DHT22;5963;50.184;9.162;2022-12-07T02:12:21;2.50;99.90
11812;DHT22;5963;50.184;9.162;2022-12-07T02:14:53;2.50;99.90
11812;DHT22;5963;50.184;9.162;2022-12-07T02:17:28;2.50;99.90
11812;DHT22;5963;50.184;9.162;2022-12-07T02:20:21;2.50;99.90
11812;DHT22;5963;50.184;9.162;2022-12-07T02:29:12;2.40;99.90
11812;DHT22;5963;50.184;9.162;2022-12-07T02:31:46;2.50;99.90
11812;DHT22;5963;50.184;9.162;2022-12-07T02:34:21;2.40;99.90
11812;DHT22;5963;50.184;9.162;2022-12-07T02:37:00;2.40;99.90
11812;DHT22;5963;50.184;9.162;2022-12-07T02:39:36;2.40;99.90
11812;DHT22;5963;50.184;9.162;2022-12-07T02:42:12;2.40;99.90
11812;DHT22;5963;50.184;9.162;2022-12-07T02:44:45;2.40;99.90
11812;DHT22;5963;50.184;9.162;2022-12-07T02:47:18;2.40;99.90
11812;DHT22;5963;50.184;9.162;2022-12-07T02:49:51;2.40;99.90
11812;DHT22;5963;50.184;9.162;2022-12-07T02:52:21;2.40;99.90
11812;DHT22;5963;50.184;9.162;2022-12-07T02:54:51;2.50;99.90
11812;DHT22;5963;50.184;9.162;2022-12-07T02:57:48;2.50;99.90
11812;DHT22;5963;50.184;9.162;2022-12-07T03:00:24;2.50;99.90
11812;DHT22;5963;50.184;9.162;2022-12-07T03:02:58;2.50;99.90
11812;DHT22;5963;50.184;9.162;2022-12-07T03:08:42;2.50;99.90
11812;DHT22;5963;50.184;9.162;2022-12-07T03:11:16;2.50;99.90
11812;DHT22;5963;50.184;9.162;2022-12-07T03:13:54;2.60;99.90
11812;DHT22;5963;50.184;9.162;2022-12-07T03:16:29;2.50;99.90
11812;DHT22;5963;50.184;9.162;2022-12-07T03:19:05;2.50;99.90
11812;DHT22;5963;50.184;9.162;2022-12-07T03:21:40;2.50;99.90
11812;DHT22;5963;50.184;9.162;2022-12-07T03:24:13;2.50;99.90
11812;DHT22;5963;50.184;9.162;2022-12-07T03:26:51;2.50;99.90
11812;DHT22;5963;50.184;9.162;2022-12-07T03:29:26;2.50;99.90
11812;DHT22;5963;50.184;9.162;2022-12-07T03:32:01;2.50;99.90
11812;DHT22;5963;50.184;9.162;2022-12-07T03:34:35;2.50;99.90
11812;DHT22;5963;50.184;9.162;2022-12-07T03:37:08;2.60;99.90
11812;DHT22;5963;50.184;9.162;2022-12-07T03:39:44;2.50;99.90
11812;DHT22;5963;50.184;9.162;2022-12-07T03:42:15;2.60;99.90
11812;DHT22;5963;50.184;9.162;2022-12-07T03:44:45;2.60;99.90
11812;DHT22;5963;50.184;9.162;2022-12-07T03:47:25;2.60;99.90
11812;DHT22;5963;50.184;9.162;2022-12-07T03:50:00;2.50;99.90
11812;DHT22;5963;50.184;9.162;2022-12-07T03:52:36;2.60;99.90
11812;DHT22;5963;50.184;9.162;2022-12-07T03:55:11;2.60;99.90
11812;DHT22;5963;50.184;9.162;2022-12-07T03:57:47;2.60;99.90
11812;DHT22;5963;50.184;9.162;2022-12-07T04:00:18;2.50;99.90
11812;DHT22;5963;50.184;9.162;2022-12-07T04:02:53;2.50;99.90
11812;DHT22;5963;50.184;9.162;2022-12-07T04:05:23;2.50;99.90
11812;DHT22;5963;50.184;9.162;2022-12-07T04:07:53;2.50;99.90
11812;DHT22;5963;50.184;9.162;2022-12-07T04:10:23;2.50;99.90
11812;DHT22;5963;50.184;9.162;2022-12-07T04:12:53;2.50;99.90
11812;DHT22;5963;50.184;9.162;2022-12-07T04:15:23;2.60;99.90
11812;DHT22;5963;50.184;9.162;2022-12-07T04:17:54;2.60;99.90
11812;DHT22;5963;50.184;9.162;2022-12-07T04:20:24;2.60;99.90
11812;DHT22;5963;50.184;9.162;2022-12-07T04:22:54;2.60;99.90
11812;DHT22;5963;50.184;9.162;2022-12-07T04:25:23;2.60;99.90
11812;DHT22;5963;50.184;9.162;2022-12-07T04:27:53;2.60;99.90
11812;DHT22;5963;50.184;9.162;2022-12-07T04:30:23;2.60;99.90
11812;DHT22;5963;50.184;9.162;2022-12-07T04:32:54;2.60;99.90
11812;DHT22;5963;50.184;9.162;2022-12-07T04:35:24;2.60;99.90
11812;DHT22;5963;50.184;9.162;2022-12-07T04:37:54;2.60;99.90
11812;DHT22;5963;50.184;9.162;2022-12-07T04:40:23;2.70;99.90
11812;DHT22;5963;50.184;9.162;2022-12-07T04:42:53;2.60;99.90
11812;DHT22;5963;50.184;9.162;2022-12-07T04:45:23;2.70;99.90
11812;DHT22;5963;50.184;9.162;2022-12-07T04:47:52;2.60;99.90
11812;DHT22;5963;50.184;9.162;2022-12-07T04:50:22;2.70;99.90
11812;DHT22;5963;50.184;9.162;2022-12-07T04:52:52;2.70;99.90
11812;DHT22;5963;50.184;9.162;2022-12-07T04:55:21;2.60;99.90
11812;DHT22;5963;50.184;9.162;2022-12-07T04:57:51;2.60;99.90
11812;DHT22;5963;50.184;9.162;2022-12-07T05:00:21;2.60;99.90
11812;DHT22;5963;50.184;9.162;2022-12-07T05:02:51;2.60;99.90
11812;DHT22;5963;50.184;9.162;2022-12-07T05:05:22;2.60;99.90
11812;DHT22;5963;50.184;9.162;2022-12-07T05:07:52;2.60;99.90
11812;DHT22;5963;50.184;9.162;2022-12-07T05:10:22;2.60;99.90
11812;DHT22;5963;50.184;9.162;2022-12-07T05:12:52;2.60;99.90
11812;DHT22;5963;50.184;9.162;2022-12-07T05:15:22;2.60;99.90
11812;DHT22;5963;50.184;9.162;2022-12-07T05:17:51;2.60;99.90
11812;DHT22;5963;50.184;9.162;2022-12-07T05:20:23;2.70;99.90
11812;DHT22;5963;50.184;9.162;2022-12-07T05:22:52;2.70;99.90
11812;DHT22;5963;50.184;9.162;2022-12-07T05:25:22;2.70;99.90
11812;DHT22;5963;50.184;9.162;2022-12-07T05:27:53;2.70;99.90
11812;DHT22;5963;50.184;9.162;2022-12-07T05:30:24;2.70;99.90
11812;DHT22;5963;50.184;9.162;2022-12-07T05:32:55;2.70;99.90
11812;DHT22;5963;50.184;9.162;2022-12-07T05:35:26;2.60;99.90
11812;DHT22;5963;50.184;9.162;2022-12-07T05:37:56;2.70;99.90
11812;DHT22;5963;50.184;9.162;2022-12-07T05:40:27;2.70;99.90
11812;DHT22;5963;50.184;9.162;2022-12-07T05:42:56;2.70;99.90
11812;DHT22;5963;50.184;9.162;2022-12-07T05:45:32;2.70;99.90
11812;DHT22;5963;50.184;9.162;2022-12-07T05:48:01;2.70;99.90
11812;DHT22;5963;50.184;9.162;2022-12-07T05:50:32;2.70;99.90
11812;DHT22;5963;50.184;9.162;2022-12-07T05:53:02;2.70;99.90
11812;DHT22;5963;50.184;9.162;2022-12-07T05:55:32;2.70;99.90
11812;DHT22;5963;50.184;9.162;2022-12-07T05:58:02;2.70;99.90
11812;DHT22;5963;50.184;9.162;2022-12-07T06:00:49;2.70;99.90
11812;DHT22;5963;50.184;9.162;2022-12-07T06:03:19;2.70;99.90
11812;DHT22;5963;50.184;9.162;2022-12-07T06:05:51;2.70;99.90
11812;DHT22;5963;50.184;9.162;2022-12-07T06:08:21;2.70;99.90
11812;DHT22;5963;50.184;9.162;2022-12-07T06:10:51;2.70;99.90
11812;DHT22;5963;50.184;9.162;2022-12-07T06:13:40;2.70;99.90
11812;DHT22;5963;50.184;9.162;2022-12-07T06:16:14;2.70;99.90
11812;DHT22;5963;50.184;9.162;2022-12-07T06:18:44;2.70;99.90
11812;DHT22;5963;50.184;9.162;2022-12-07T06:21:15;2.70;99.90
11812;DHT22;5963;50.184;9.162;2022-12-07T06:23:46;2.70;99.90
11812;DHT22;5963;50.184;9.162;2022-12-07T06:26:16;2.70;99.90
11812;DHT22;5963;50.184;9.162;2022-12-07T06:28:46;2.70;99.90
11812;DHT22;5963;50.184;9.162;2022-12-07T06:31:16;2.70;99.90
11812;DHT22;5963;50.184;9.162;2022-12-07T06:33:46;2.70;99.90
11812;DHT22;5963;50.184;9.162;2022-12-07T06:36:17;2.70;99.90
11812;DHT22;5963;50.184;9.162;2022-12-07T06:38:54;2.70;99.90
11812;DHT22;5963;50.184;9.162;2022-12-07T06:41:24;2.80;99.90
11812;DHT22;5963;50.184;9.162;2022-12-07T06:43:54;2.80;99.90
11812;DHT22;5963;50.184;9.162;2022-12-07T06:46:24;2.80;99.90
11812;DHT22;5963;50.184;9.162;2022-12-07T06:48:54;2.80;99.90
11812;DHT22;5963;50.184;9.162;2022-12-07T06:51:26;2.80;99.90
11812;DHT22;5963;50.184;9.162;2022-12-07T06:53:56;2.80;99.90
11812;DHT22;5963;50.184;9.162;2022-12-07T06:56:25;2.80;99.90
11812;DHT22;5963;50.184;9.162;2022-12-07T06:58:55;2.80;99.90
11812;DHT22;5963;50.184;9.162;2022-12-07T07:01:25;2.80;99.90
11812;DHT22;5963;50.184;9.162;2022-12-07T07:03:57;2.80;99.90
11812;DHT22;5963;50.184;9.162;2022-12-07T07:06:28;2.80;99.90
11812;DHT22;5963;50.184;9.162;2022-12-07T07:08:58;2.90;99.90
11812;DHT22;5963;50.184;9.162;2022-12-07T07:11:27;2.80;99.90
11812;DHT22;5963;50.184;9.162;2022-12-07T07:13:57;2.80;99.90
11812;DHT22;5963;50.184;9.162;2022-12-07T07:16:30;2.90;99.90
11812;DHT22;5963;50.184;9.162;2022-12-07T07:19:00;2.90;99.90
11812;DHT22;5963;50.184;9.162;2022-12-07T07:21:31;2.90;99.90
11812;DHT22;5963;50.184;9.162;2022-12-07T07:24:01;2.90;99.90
11812;DHT22;5963;50.184;9.162;2022-12-07T07:26:31;2.90;99.90
11812;DHT22;5963;50.184;9.162;2022-12-07T07:29:00;2.80;99.90
11812;DHT22;5963;50.184;9.162;2022-12-07T07:31:30;2.90;99.90
11812;DHT22;5963;50.184;9.162;2022-12-07T07:34:00;2.90;99.90
11812;DHT22;5963;50.184;9.162;2022-12-07T07:36:32;2.90;99.90
11812;DHT22;5963;50.184;9.162;2022-12-07T07:39:01;2.90;99.90
11812;DHT22;5963;50.184;9.162;2022-12-07T07:41:31;2.90;99.90
11812;DHT22;5963;50.184;9.162;2022-12-07T07:44:01;2.90;99.90
11812;DHT22;5963;50.184;9.162;2022-12-07T07:46:31;2.90;99.90
11812;DHT22;5963;50.184;9.162;2022-12-07T07:49:01;2.90;99.90
11812;DHT22;5963;50.184;9.162;2022-12-07T07:51:33;2.90;99.90
11812;DHT22;5963;50.184;9.162;2022-12-07T07:54:02;3.00;99.90
11812;DHT22;5963;50.184;9.162;2022-12-07T07:56:33;3.00;99.90
11812;DHT22;5963;50.184;9.162;2022-12-07T07:59:03;3.10;99.90
11812;DHT22;5963;50.184;9.162;2022-12-07T08:01:32;3.00;99.90
11812;DHT22;5963;50.184;9.162;2022-12-07T08:04:02;3.10;99.90
11812;DHT22;5963;50.184;9.162;2022-12-07T08:06:34;3.10;99.90
11812;DHT22;5963;50.184;9.162;2022-12-07T08:09:03;3.10;99.90
11812;DHT22;5963;50.184;9.162;2022-12-07T08:11:34;3.10;99.90
11812;DHT22;5963;50.184;9.162;2022-12-07T08:14:05;3.10;99.90
11812;DHT22;5963;50.184;9.162;2022-12-07T08:16:34;3.10;99.90
11812;DHT22;5963;50.184;9.162;2022-12-07T08:19:06;3.10;99.90
11812;DHT22;5963;50.184;9.162;2022-12-07T08:21:37;3.20;99.90
11812;DHT22;5963;50.184;9.162;2022-12-07T08:24:07;3.20;99.90
11812;DHT22;5963;50.184;9.162;2022-12-07T08:26:37;3.20;99.90
11812;DHT22;5963;50.184;9.162;2022-12-07T08:29:07;3.20;99.90
11812;DHT22;5963;50.184;9.162;2022-12-07T08:31:37;3.20;99.90
11812;DHT22;5963;50.184;9.162;2022-12-07T08:34:07;3.20;99.90
11812;DHT22;5963;50.184;9.162;2022-12-07T08:36:39;3.20;99.90
11812;DHT22;5963;50.184;9.162;2022-12-07T08:39:09;3.30;99.90
11812;DHT22;5963;50.184;9.162;2022-12-07T08:41:59;3.30;99.90
11812;DHT22;5963;50.184;9.162;2022-12-07T08:44:28;3.40;99.90
11812;DHT22;5963;50.184;9.162;2022-12-07T08:47:01;3.40;99.90
11812;DHT22;5963;50.184;9.162;2022-12-07T08:49:34;3.40;99.90
11812;DHT22;5963;50.184;9.162;2022-12-07T08:52:07;3.40;99.90
11812;DHT22;5963;50.184;9.162;2022-12-07T08:54:38;3.40;99.90
11812;DHT22;5963;50.184;9.162;2022-12-07T08:57:10;3.40;99.90
11812;DHT22;5963;50.184;9.162;2022-12-07T08:59:40;3.30;99.90
11812;DHT22;5963;50.184;9.162;2022-12-07T09:02:10;3.30;99.90
11812;DHT22;5963;50.184;9.162;2022-12-07T09:04:40;3.40;99.90
11812;DHT22;5963;50.184;9.162;2022-12-07T09:07:09;3.40;99.90
11812;DHT22;5963;50.184;9.162;2022-12-07T09:09:40;3.40;99.90
11812;DHT22;5963;50.184;9.162;2022-12-07T09:12:10;3.50;99.90
11812;DHT22;5963;50.184;9.162;2022-12-07T09:14:40;3.50;99.90
11812;DHT22;5963;50.184;9.162;2022-12-07T09:17:12;3.60;99.90
11812;DHT22;5963;50.184;9.162;2022-12-07T09:19:42;3.60;99.90
11812;DHT22;5963;50.184;9.162;2022-12-07T09:22:13;3.80;99.90
11812;DHT22;5963;50.184;9.162;2022-12-07T09:24:43;4.00;99.90
11812;DHT22;5963;50.184;9.162;2022-12-07T09:27:14;4.10;99.90
11812;DHT22;5963;50.184;9.162;2022-12-07T09:29:45;4.10;99.90
11812;DHT22;5963;50.184;9.162;2022-12-07T09:32:15;4.10;99.90
11812;DHT22;5963;50.184;9.162;2022-12-07T09:34:45;4.10;99.90
11812;DHT22;5963;50.184;9.162;2022-12-07T09:37:16;4.00;99.90
11812;DHT22;5963;50.184;9.162;2022-12-07T09:39:46;4.10;99.90
11812;DHT22;5963;50.184;9.162;2022-12-07T09:42:26;4.10;99.90
11812;DHT22;5963;50.184;9.162;2022-12-07T09:44:58;4.10;99.90
11812;DHT22;5963;50.184;9.162;2022-12-07T09:47:28;4.20;99.90
11812;DHT22;5963;50.184;9.162;2022-12-07T09:50:03;4.20;99.90
11812;DHT22;5963;50.184;9.162;2022-12-07T09:52:35;4.30;99.90
11812;DHT22;5963;50.184;9.162;2022-12-07T09:55:10;4.20;99.90
11812;DHT22;5963;50.184;9.162;2022-12-07T09:57:41;4.10;99.90
11812;DHT22;5963;50.184;9.162;2022-12-07T10:00:15;4.10;99.90
11812;DHT22;5963;50.184;9.162;2022-12-07T10:02:46;4.10;99.90
11812;DHT22;5963;50.184;9.162;2022-12-07T10:05:18;4.20;99.90
11812;DHT22;5963;50.184;9.162;2022-12-07T10:07:53;4.20;99.90
11812;DHT22;5963;50.184;9.162;2022-12-07T10:10:27;4.30;99.90
11812;DHT22;5963;50.184;9.162;2022-12-07T10:13:04;4.50;99.90
11812;DHT22;5963;50.184;9.162;2022-12-07T10:15:56;4.40;99.90
11812;DHT22;5963;50.184;9.162;2022-12-07T10:18:39;4.50;99.90
11812;DHT22;5963;50.184;9.162;2022-12-07T10:21:15;4.60;99.90
11812;DHT22;5963;50.184;9.162;2022-12-07T10:24:02;4.60;99.90
11812;DHT22;5963;50.184;9.162;2022-12-07T10:26:35;4.60;99.90
11812;DHT22;5963;50.184;9.162;2022-12-07T10:29:14;4.60;99.90
11812;DHT22;5963;50.184;9.162;2022-12-07T10:31:48;4.50;99.90
11812;DHT22;5963;50.184;9.162;2022-12-07T10:34:29;4.50;99.90
11812;DHT22;5963;50.184;9.162;2022-12-07T10:37:18;4.60;99.90
11812;DHT22;5963;50.184;9.162;2022-12-07T10:39:51;4.70;99.90
11812;DHT22;5963;50.184;9.162;2022-12-07T10:42:22;4.70;99.90
11812;DHT22;5963;50.184;9.162;2022-12-07T10:45:07;4.70;99.90
11812;DHT22;5963;50.184;9.162;2022-12-07T10:47:42;4.70;99.90
11812;DHT22;5963;50.184;9.162;2022-12-07T10:50:23;4.70;99.90
11812;DHT22;5963;50.184;9.162;2022-12-07T10:53:03;4.80;99.90
11812;DHT22;5963;50.184;9.162;2022-12-07T10:55:45;4.80;99.90
11812;DHT22;5963;50.184;9.162;2022-12-07T10:58:34;4.90;99.90
11812;DHT22;5963;50.184;9.162;2022-12-07T11:01:16;5.00;99.90
11812;DHT22;5963;50.184;9.162;2022-12-07T11:03:55;4.90;99.90
11812;DHT22;5963;50.184;9.162;2022-12-07T11:06:33;4.90;99.90
11812;DHT22;5963;50.184;9.162;2022-12-07T11:09:16;5.00;99.90
11812;DHT22;5963;50.184;9.162;2022-12-07T11:12:15;5.00;99.90
11812;DHT22;5963;50.184;9.162;2022-12-07T11:14:52;5.00;99.90
11812;DHT22;5963;50.184;9.162;2022-12-07T11:17:28;4.90;99.90
11812;DHT22;5963;50.184;9.162;2022-12-07T11:20:11;4.90;99.90
11812;DHT22;5963;50.184;9.162;2022-12-07T11:22:48;4.90;99.90
11812;DHT22;5963;50.184;9.162;2022-12-07T11:25:24;5.10;99.90
11812;DHT22;5963;50.184;9.162;2022-12-07T11:28:11;5.10;99.90
11812;DHT22;5963;50.184;9.162;2022-12-07T11:30:49;5.30;99.90
11812;DHT22;5963;50.184;9.162;2022-12-07T11:33:29;5.50;99.90
11812;DHT22;5963;50.184;9.162;2022-12-07T11:36:08;5.50;99.90
11812;DHT22;5963;50.184;9.162;2022-12-07T11:38:44;5.60;99.90
11812;DHT22;5963;50.184;9.162;2022-12-07T11:41:22;5.60;99.90
11812;DHT22;5963;50.184;9.162;2022-12-07T11:43:58;5.80;99.90
11812;DHT22;5963;50.184;9.162;2022-12-07T11:46:36;5.60;99.90
11812;DHT22;5963;50.184;9.162;2022-12-07T11:49:13;5.40;99.90
11812;DHT22;5963;50.184;9.162;2022-12-07T11:51:45;5.50;99.90
11812;DHT22;5963;50.184;9.162;2022-12-07T11:54:18;5.70;99.90
11812;DHT22;5963;50.184;9.162;2022-12-07T11:56:51;5.80;99.90
11812;DHT22;5963;50.184;9.162;2022-12-07T11:59:29;5.90;99.90
11812;DHT22;5963;50.184;9.162;2022-12-07T12:02:07;6.00;99.90
11812;DHT22;5963;50.184;9.162;2022-12-07T12:04:47;6.00;99.90
11812;DHT22;5963;50.184;9.162;2022-12-07T12:07:23;5.90;99.90
11812;DHT22;5963;50.184;9.162;2022-12-07T12:10:21;6.00;99.90
11812;DHT22;5963;50.184;9.162;2022-12-07T12:13:03;5.90;99.90
11812;DHT22;5963;50.184;9.162;2022-12-07T12:16:09;5.90;99.90
11812;DHT22;5963;50.184;9.162;2022-12-07T12:18:57;6.00;99.90
11812;DHT22;5963;50.184;9.162;2022-12-07T12:21:34;6.20;99.90
11812;DHT22;5963;50.184;9.162;2022-12-07T12:24:09;6.40;99.90
11812;DHT22;5963;50.184;9.162;2022-12-07T12:26:47;6.30;99.90
11812;DHT22;5963;50.184;9.162;2022-12-07T12:29:23;6.30;99.90
11812;DHT22;5963;50.184;9.162;2022-12-07T12:32:14;6.30;99.90
11812;DHT22;5963;50.184;9.162;2022-12-07T12:35:21;6.30;99.90
11812;DHT22;5963;50.184;9.162;2022-12-07T12:37:54;6.30;99.90
11812;DHT22;5963;50.184;9.162;2022-12-07T12:40:43;6.40;99.90
11812;DHT22;5963;50.184;9.162;2022-12-07T12:46:45;6.40;99.90
11812;DHT22;5963;50.184;9.162;2022-12-07T12:55:19;6.20;99.90
11812;DHT22;5963;50.184;9.162;2022-12-07T12:58:33;6.20;99.90
11812;DHT22;5963;50.184;9.162;2022-12-07T13:07:08;6.00;99.90
11812;DHT22;5963;50.184;9.162;2022-12-07T13:09:42;5.90;99.90
11812;DHT22;5963;50.184;9.162;2022-12-07T13:12:16;5.90;99.90
11812;DHT22;5963;50.184;9.162;2022-12-07T13:14:56;5.80;99.90
11812;DHT22;5963;50.184;9.162;2022-12-07T13:17:59;5.70;99.90
11812;DHT22;5963;50.184;9.162;2022-12-07T13:20:48;5.70;99.90
11812;DHT22;5963;50.184;9.162;2022-12-07T13:23:22;5.80;99.90
11812;DHT22;5963;50.184;9.162;2022-12-07T13:26:12;5.90;99.90
11812;DHT22;5963;50.184;9.162;2022-12-07T13:28:48;5.70;99.90
11812;DHT22;5963;50.184;9.162;2022-12-07T13:31:32;5.70;99.90
11812;DHT22;5963;50.184;9.162;2022-12-07T13:34:03;5.80;99.90
11812;DHT22;5963;50.184;9.162;2022-12-07T13:36:37;5.60;99.90
11812;DHT22;5963;50.184;9.162;2022-12-07T13:39:20;5.50;99.90
11812;DHT22;5963;50.184;9.162;2022-12-07T13:41:52;5.30;99.90
11812;DHT22;5963;50.184;9.162;2022-12-07T13:44:25;5.20;99.90
11812;DHT22;5963;50.184;9.162;2022-12-07T13:47:02;5.00;99.90
11812;DHT22;5963;50.184;9.162;2022-12-07T13:49:36;4.90;99.90
11812;DHT22;5963;50.184;9.162;2022-12-07T13:52:16;4.80;99.90
11812;DHT22;5963;50.184;9.162;2022-12-07T13:54:49;4.80;99.90
11812;DHT22;5963;50.184;9.162;2022-12-07T13:57:19;4.70;99.90
11812;DHT22;5963;50.184;9.162;2022-12-07T13:59:51;4.50;99.90
11812;DHT22;5963;50.184;9.162;2022-12-07T14:02:23;4.40;99.90
11812;DHT22;5963;50.184;9.162;2022-12-07T14:05:09;4.30;99.90
11812;DHT22;5963;50.184;9.162;2022-12-07T14:07:49;4.10;99.90
11812;DHT22;5963;50.184;9.162;2022-12-07T14:10:25;4.10;99.90
11812;DHT22;5963;50.184;9.162;2022-12-07T14:12:56;4.00;99.90
11812;DHT22;5963;50.184;9.162;2022-12-07T14:15:29;4.00;99.90
11812;DHT22;5963;50.184;9.162;2022-12-07T14:18:01;3.90;99.90
11812;DHT22;5963;50.184;9.162;2022-12-07T14:20:34;3.80;99.90
11812;DHT22;5963;50.184;9.162;2022-12-07T14:23:05;3.80;99.90
11812;DHT22;5963;50.184;9.162;2022-12-07T14:25:51;3.80;99.90
11812;DHT22;5963;50.184;9.162;2022-12-07T14:28:30;3.70;99.90
11812;DHT22;5963;50.184;9.162;2022-12-07T14:31:02;3.70;99.90
11812;DHT22;5963;50.184;9.162;2022-12-07T14:33:32;3.60;99.90
11812;DHT22;5963;50.184;9.162;2022-12-07T14:36:01;3.60;99.90
11812;DHT22;5963;50.184;9.162;2022-12-07T14:38:31;3.60;99.90
11812;DHT22;5963;50.184;9.162;2022-12-07T14:41:01;3.50;99.90
11812;DHT22;5963;50.184;9.162;2022-12-07T14:43:45;3.40;99.90
11812;DHT22;5963;50.184;9.162;2022-12-07T14:46:36;3.40;99.90
11812;DHT22;5963;50.184;9.162;2022-12-07T14:49:06;3.40;99.90
11812;DHT22;5963;50.184;9.162;2022-12-07T14:51:56;3.30;99.90
11812;DHT22;5963;50.184;9.162;2022-12-07T14:54:47;3.30;99.90
11812;DHT22;5963;50.184;9.162;2022-12-07T14:57:17;3.20;99.90
11812;DHT22;5963;50.184;9.162;2022-12-07T14:59:47;3.20;99.90
11812;DHT22;5963;50.184;9.162;2022-12-07T15:02:18;3.10;99.90
11812;DHT22;5963;50.184;9.162;2022-12-07T15:04:48;3.10;99.90
11812;DHT22;5963;50.184;9.162;2022-12-07T15:07:20;3.10;99.90
11812;DHT22;5963;50.184;9.162;2022-12-07T15:09:50;3.10;99.90
11812;DHT22;5963;50.184;9.162;2022-12-07T15:12:20;3.10;99.90
11812;DHT22;5963;50.184;9.162;2022-12-07T15:14:48;3.20;99.90
11812;DHT22;5963;50.184;9.162;2022-12-07T15:17:19;3.30;99.90
11812;DHT22;5963;50.184;9.162;2022-12-07T15:19:59;3.30;99.90
11812;DHT22;5963;50.184;9.162;2022-12-07T15:22:29;3.20;99.90
11812;DHT22;5963;50.184;9.162;2022-12-07T15:25:06;3.10;99.90
11812;DHT22;5963;50.184;9.162;2022-12-07T15:27:36;3.10;99.90
11812;DHT22;5963;50.184;9.162;2022-12-07T15:30:07;3.00;99.90
11812;DHT22;5963;50.184;9.162;2022-12-07T15:32:38;2.90;99.90
11812;DHT22;5963;50.184;9.162;2022-12-07T15:35:09;2.90;99.90
11812;DHT22;5963;50.184;9.162;2022-12-07T15:37:39;2.80;99.90
11812;DHT22;5963;50.184;9.162;2022-12-07T15:40:10;2.80;99.90
11812;DHT22;5963;50.184;9.162;2022-12-07T15:42:41;2.80;99.90
11812;DHT22;5963;50.184;9.162;2022-12-07T15:45:12;2.80;99.90
11812;DHT22;5963;50.184;9.162;2022-12-07T15:47:45;2.90;99.90
11812;DHT22;5963;50.184;9.162;2022-12-07T15:50:34;3.00;99.90
11812;DHT22;5963;50.184;9.162;2022-12-07T15:53:04;3.10;99.90
11812;DHT22;5963;50.184;9.162;2022-12-07T15:55:34;3.10;99.90
11812;DHT22;5963;50.184;9.162;2022-12-07T15:58:04;3.10;99.90
11812;DHT22;5963;50.184;9.162;2022-12-07T16:00:33;3.10;99.90
11812;DHT22;5963;50.184;9.162;2022-12-07T16:03:05;3.10;99.90
11812;DHT22;5963;50.184;9.162;2022-12-07T16:05:34;3.10;99.90
11812;DHT22;5963;50.184;9.162;2022-12-07T16:08:05;3.10;99.90
11812;DHT22;5963;50.184;9.162;2022-12-07T16:10:35;3.10;99.90
11812;DHT22;5963;50.184;9.162;2022-12-07T16:13:05;3.10;99.90
11812;DHT22;5963;50.184;9.162;2022-12-07T16:15:39;3.00;99.90
11812;DHT22;5963;50.184;9.162;2022-12-07T16:18:10;3.10;99.90
11812;DHT22;5963;50.184;9.162;2022-12-07T16:20:41;3.10;99.90
11812;DHT22;5963;50.184;9.162;2022-12-07T16:23:11;3.00;99.90
11812;DHT22;5963;50.184;9.162;2022-12-07T16:25:40;3.00;99.90
11812;DHT22;5963;50.184;9.162;2022-12-07T16:28:10;3.00;99.90
11812;DHT22;5963;50.184;9.162;2022-12-07T16:30:40;3.00;99.90
11812;DHT22;5963;50.184;9.162;2022-12-07T16:33:11;3.00;99.90
11812;DHT22;5963;50.184;9.162;2022-12-07T16:35:41;3.10;99.90
11812;DHT22;5963;50.184;9.162;2022-12-07T16:38:12;3.10;99.90
11812;DHT22;5963;50.184;9.162;2022-12-07T16:40:42;3.20;99.90
11812;DHT22;5963;50.184;9.162;2022-12-07T16:43:14;3.20;99.90
11812;DHT22;5963;50.184;9.162;2022-12-07T16:45:44;3.20;99.90
11812;DHT22;5963;50.184;9.162;2022-12-07T16:48:15;3.20;99.90
11812;DHT22;5963;50.184;9.162;2022-12-07T16:50:45;3.20;99.90
11812;DHT22;5963;50.184;9.162;2022-12-07T16:53:19;3.30;99.90
11812;DHT22;5963;50.184;9.162;2022-12-07T16:55:49;3.30;99.90
11812;DHT22;5963;50.184;9.162;2022-12-07T16:58:19;3.30;99.90
11812;DHT22;5963;50.184;9.162;2022-12-07T17:00:49;3.30;99.90
11812;DHT22;5963;50.184;9.162;2022-12-07T17:03:20;3.30;99.90
11812;DHT22;5963;50.184;9.162;2022-12-07T17:05:50;3.30;99.90
11812;DHT22;5963;50.184;9.162;2022-12-07T17:08:19;3.30;99.90